sensor_id;sensor_type;location;lat;lon;timestamp;P1;durP1;ratioP1;P2;durP2;ratioP2
19525;SDS011;9907;42.676;26.348;2022-07-15T00:02:05;1.47;;;1.00;;
19525;SDS011;9907;42.676;26.348;2022-07-15T00:04:31;2.80;;;1.20;;
19525;SDS011;9907;42.676;26.348;2022-07-15T00:06:57;1.40;;;1.20;;
19525;SDS011;9907;42.676;26.348;2022-07-15T00:09:23;1.53;;;1.10;;
19525;SDS011;9907;42.676;26.348;2022-07-15T00:12:08;2.13;;;0.93;;
19525;SDS011;9907;42.676;26.348;2022-07-15T00:14:34;1.17;;;1.00;;
19525;SDS011;9907;42.676;26.348;2022-07-15T00:17:00;1.47;;;1.00;;
19525;SDS011;9907;42.676;26.348;2022-07-15T00:19:26;2.00;;;1.30;;
19525;SDS011;9907;42.676;26.348;2022-07-15T00:21:52;1.07;;;0.97;;
19525;SDS011;9907;42.676;26.348;2022-07-15T00:24:17;1.20;;;1.10;;
19525;SDS011;9907;42.676;26.348;2022-07-15T00:26:43;2.03;;;1.00;;
19525;SDS011;9907;42.676;26.348;2022-07-15T00:29:08;1.60;;;1.00;;
19525;SDS011;9907;42.676;26.348;2022-07-15T00:31:35;1.40;;;1.30;;
19525;SDS011;9907;42.676;26.348;2022-07-15T00:34:01;1.13;;;1.03;;
19525;SDS011;9907;42.676;26.348;2022-07-15T00:36:26;1.20;;;1.10;;
19525;SDS011;9907;42.676;26.348;2022-07-15T00:38:52;1.40;;;1.10;;
19525;SDS011;9907;42.676;26.348;2022-07-15T00:41:18;1.30;;;1.20;;
19525;SDS011;9907;42.676;26.348;2022-07-15T00:43:43;1.70;;;1.07;;
19525;SDS011;9907;42.676;26.348;2022-07-15T00:46:09;1.30;;;1.07;;
19525;SDS011;9907;42.676;26.348;2022-07-15T00:48:34;1.10;;;0.97;;
19525;SDS011;9907;42.676;26.348;2022-07-15T00:51:00;3.07;;;0.87;;
19525;SDS011;9907;42.676;26.348;2022-07-15T00:53:26;1.20;;;1.10;;
19525;SDS011;9907;42.676;26.348;2022-07-15T00:55:56;3.57;;;1.27;;
19525;SDS011;9907;42.676;26.348;2022-07-15T00:58:24;1.20;;;1.10;;
19525;SDS011;9907;42.676;26.348;2022-07-15T01:00:52;0.90;;;0.90;;
19525;SDS011;9907;42.676;26.348;2022-07-15T01:03:19;2.90;;;1.10;;
19525;SDS011;9907;42.676;26.348;2022-07-15T01:05:45;1.20;;;1.10;;
19525;SDS011;9907;42.676;26.348;2022-07-15T01:08:11;1.23;;;1.13;;
19525;SDS011;9907;42.676;26.348;2022-07-15T01:10:37;1.90;;;1.10;;
19525;SDS011;9907;42.676;26.348;2022-07-15T01:13:04;1.60;;;1.40;;
19525;SDS011;9907;42.676;26.348;2022-07-15T01:15:30;1.37;;;1.10;;
19525;SDS011;9907;42.676;26.348;2022-07-15T01:17:58;0.93;;;0.93;;
19525;SDS011;9907;42.676;26.348;2022-07-15T01:20:24;2.43;;;1.20;;
19525;SDS011;9907;42.676;26.348;2022-07-15T01:22:50;3.07;;;0.90;;
19525;SDS011;9907;42.676;26.348;2022-07-15T01:25:15;2.10;;;1.10;;
19525;SDS011;9907;42.676;26.348;2022-07-15T01:27:40;1.27;;;1.17;;
19525;SDS011;9907;42.676;26.348;2022-07-15T01:30:06;1.73;;;1.30;;
19525;SDS011;9907;42.676;26.348;2022-07-15T01:32:33;1.67;;;0.90;;
19525;SDS011;9907;42.676;26.348;2022-07-15T01:34:58;2.13;;;1.20;;
19525;SDS011;9907;42.676;26.348;2022-07-15T01:37:24;2.10;;;0.93;;
19525;SDS011;9907;42.676;26.348;2022-07-15T01:39:49;1.17;;;1.07;;
19525;SDS011;9907;42.676;26.348;2022-07-15T01:42:15;1.40;;;1.00;;
19525;SDS011;9907;42.676;26.348;2022-07-15T01:44:40;2.63;;;1.60;;
19525;SDS011;9907;42.676;26.348;2022-07-15T01:47:06;1.37;;;1.23;;
19525;SDS011;9907;42.676;26.348;2022-07-15T01:49:32;1.43;;;1.20;;
19525;SDS011;9907;42.676;26.348;2022-07-15T01:51:58;2.30;;;1.63;;
19525;SDS011;9907;42.676;26.348;2022-07-15T01:54:25;1.40;;;1.30;;
19525;SDS011;9907;42.676;26.348;2022-07-15T01:56:52;4.20;;;2.93;;
19525;SDS011;9907;42.676;26.348;2022-07-15T01:59:18;1.67;;;1.57;;
19525;SDS011;9907;42.676;26.348;2022-07-15T02:01:47;2.53;;;1.57;;
19525;SDS011;9907;42.676;26.348;2022-07-15T02:04:13;1.60;;;1.50;;
19525;SDS011;9907;42.676;26.348;2022-07-15T02:06:39;2.93;;;1.07;;
19525;SDS011;9907;42.676;26.348;2022-07-15T02:09:05;1.20;;;1.13;;
19525;SDS011;9907;42.676;26.348;2022-07-15T02:11:31;0.90;;;0.90;;
19525;SDS011;9907;42.676;26.348;2022-07-15T02:13:57;1.40;;;1.30;;
19525;SDS011;9907;42.676;26.348;2022-07-15T02:16:28;1.10;;;1.10;;
19525;SDS011;9907;42.676;26.348;2022-07-15T02:18:54;1.30;;;1.20;;
19525;SDS011;9907;42.676;26.348;2022-07-15T02:21:20;2.07;;;1.20;;
19525;SDS011;9907;42.676;26.348;2022-07-15T02:23:46;1.67;;;1.23;;
19525;SDS011;9907;42.676;26.348;2022-07-15T02:26:12;1.40;;;1.03;;
19525;SDS011;9907;42.676;26.348;2022-07-15T02:28:38;1.93;;;1.10;;
19525;SDS011;9907;42.676;26.348;2022-07-15T02:31:03;1.30;;;1.20;;
19525;SDS011;9907;42.676;26.348;2022-07-15T02:33:30;1.37;;;1.20;;
19525;SDS011;9907;42.676;26.348;2022-07-15T02:35:56;1.10;;;1.00;;
19525;SDS011;9907;42.676;26.348;2022-07-15T02:38:21;1.63;;;1.40;;
19525;SDS011;9907;42.676;26.348;2022-07-15T02:40:48;1.40;;;1.30;;
19525;SDS011;9907;42.676;26.348;2022-07-15T02:43:13;1.70;;;1.20;;
19525;SDS011;9907;42.676;26.348;2022-07-15T02:45:39;2.40;;;1.47;;
19525;SDS011;9907;42.676;26.348;2022-07-15T02:48:05;3.20;;;1.90;;
19525;SDS011;9907;42.676;26.348;2022-07-15T02:50:31;1.40;;;1.30;;
19525;SDS011;9907;42.676;26.348;2022-07-15T02:52:57;3.10;;;1.63;;
19525;SDS011;9907;42.676;26.348;2022-07-15T02:55:22;4.70;;;2.43;;
19525;SDS011;9907;42.676;26.348;2022-07-15T02:57:48;4.73;;;2.63;;
19525;SDS011;9907;42.676;26.348;2022-07-15T03:00:15;4.47;;;3.10;;
19525;SDS011;9907;42.676;26.348;2022-07-15T03:02:42;3.63;;;1.93;;
19525;SDS011;9907;42.676;26.348;2022-07-15T03:05:09;2.17;;;1.60;;
19525;SDS011;9907;42.676;26.348;2022-07-15T03:07:35;2.23;;;1.40;;
19525;SDS011;9907;42.676;26.348;2022-07-15T03:10:00;1.60;;;1.30;;
19525;SDS011;9907;42.676;26.348;2022-07-15T03:12:26;1.90;;;1.50;;
19525;SDS011;9907;42.676;26.348;2022-07-15T03:14:51;2.73;;;1.50;;
19525;SDS011;9907;42.676;26.348;2022-07-15T03:17:17;2.33;;;1.50;;
19525;SDS011;9907;42.676;26.348;2022-07-15T03:19:42;2.53;;;1.43;;
19525;SDS011;9907;42.676;26.348;2022-07-15T03:22:08;1.83;;;1.30;;
19525;SDS011;9907;42.676;26.348;2022-07-15T03:24:33;2.47;;;1.40;;
19525;SDS011;9907;42.676;26.348;2022-07-15T03:26:59;2.10;;;1.47;;
19525;SDS011;9907;42.676;26.348;2022-07-15T03:29:24;1.43;;;1.33;;
19525;SDS011;9907;42.676;26.348;2022-07-15T03:31:51;2.87;;;1.40;;
19525;SDS011;9907;42.676;26.348;2022-07-15T03:34:18;4.73;;;1.60;;
19525;SDS011;9907;42.676;26.348;2022-07-15T03:36:44;2.00;;;1.37;;
19525;SDS011;9907;42.676;26.348;2022-07-15T03:39:09;2.90;;;1.40;;
19525;SDS011;9907;42.676;26.348;2022-07-15T03:41:35;3.13;;;1.60;;
19525;SDS011;9907;42.676;26.348;2022-07-15T03:44:01;3.07;;;1.73;;
19525;SDS011;9907;42.676;26.348;2022-07-15T03:46:27;3.80;;;2.00;;
19525;SDS011;9907;42.676;26.348;2022-07-15T03:48:55;3.83;;;1.83;;
19525;SDS011;9907;42.676;26.348;2022-07-15T03:51:21;3.00;;;1.67;;
19525;SDS011;9907;42.676;26.348;2022-07-15T03:53:46;2.40;;;1.73;;
19525;SDS011;9907;42.676;26.348;2022-07-15T03:56:12;2.33;;;1.93;;
19525;SDS011;9907;42.676;26.348;2022-07-15T03:58:37;4.07;;;1.93;;
19525;SDS011;9907;42.676;26.348;2022-07-15T04:01:03;2.47;;;1.83;;
19525;SDS011;9907;42.676;26.348;2022-07-15T04:03:29;2.10;;;1.70;;
19525;SDS011;9907;42.676;26.348;2022-07-15T04:05:55;2.67;;;2.07;;
19525;SDS011;9907;42.676;26.348;2022-07-15T04:08:21;3.10;;;1.60;;
19525;SDS011;9907;42.676;26.348;2022-07-15T04:10:46;3.57;;;1.90;;
19525;SDS011;9907;42.676;26.348;2022-07-15T04:13:12;4.40;;;1.63;;
19525;SDS011;9907;42.676;26.348;2022-07-15T04:15:37;4.20;;;1.90;;
19525;SDS011;9907;42.676;26.348;2022-07-15T04:18:03;3.43;;;2.60;;
19525;SDS011;9907;42.676;26.348;2022-07-15T04:20:28;6.57;;;2.57;;
19525;SDS011;9907;42.676;26.348;2022-07-15T04:22:54;3.87;;;1.73;;
19525;SDS011;9907;42.676;26.348;2022-07-15T04:25:20;5.13;;;1.60;;
19525;SDS011;9907;42.676;26.348;2022-07-15T04:27:46;6.17;;;2.10;;
19525;SDS011;9907;42.676;26.348;2022-07-15T04:30:15;3.63;;;1.93;;
19525;SDS011;9907;42.676;26.348;2022-07-15T04:32:42;2.27;;;1.83;;
19525;SDS011;9907;42.676;26.348;2022-07-15T04:35:08;1.90;;;1.80;;
19525;SDS011;9907;42.676;26.348;2022-07-15T04:37:34;6.07;;;1.80;;
19525;SDS011;9907;42.676;26.348;2022-07-15T04:39:59;5.00;;;1.67;;
19525;SDS011;9907;42.676;26.348;2022-07-15T04:42:25;2.33;;;1.67;;
19525;SDS011;9907;42.676;26.348;2022-07-15T04:44:52;2.83;;;1.90;;
19525;SDS011;9907;42.676;26.348;2022-07-15T04:47:17;3.63;;;2.37;;
19525;SDS011;9907;42.676;26.348;2022-07-15T04:49:43;5.23;;;2.23;;
19525;SDS011;9907;42.676;26.348;2022-07-15T04:52:27;4.37;;;2.70;;
19525;SDS011;9907;42.676;26.348;2022-07-15T04:54:55;3.60;;;2.10;;
19525;SDS011;9907;42.676;26.348;2022-07-15T04:57:21;4.93;;;2.37;;
19525;SDS011;9907;42.676;26.348;2022-07-15T04:59:47;3.40;;;1.90;;
19525;SDS011;9907;42.676;26.348;2022-07-15T05:02:13;3.33;;;2.57;;
19525;SDS011;9907;42.676;26.348;2022-07-15T05:04:38;4.53;;;2.00;;
19525;SDS011;9907;42.676;26.348;2022-07-15T05:07:04;3.10;;;2.00;;
19525;SDS011;9907;42.676;26.348;2022-07-15T05:09:31;4.33;;;2.00;;
19525;SDS011;9907;42.676;26.348;2022-07-15T05:11:57;3.50;;;1.90;;
19525;SDS011;9907;42.676;26.348;2022-07-15T05:14:23;6.27;;;2.50;;
19525;SDS011;9907;42.676;26.348;2022-07-15T05:16:49;6.53;;;1.80;;
19525;SDS011;9907;42.676;26.348;2022-07-15T05:19:14;7.27;;;1.93;;
19525;SDS011;9907;42.676;26.348;2022-07-15T05:21:40;5.80;;;2.00;;
19525;SDS011;9907;42.676;26.348;2022-07-15T05:24:06;4.25;;;1.85;;
19525;SDS011;9907;42.676;26.348;2022-07-15T05:26:31;3.55;;;1.73;;
19525;SDS011;9907;42.676;26.348;2022-07-15T05:28:57;6.63;;;2.30;;
19525;SDS011;9907;42.676;26.348;2022-07-15T05:31:22;5.40;;;1.90;;
19525;SDS011;9907;42.676;26.348;2022-07-15T05:33:48;7.85;;;2.50;;
19525;SDS011;9907;42.676;26.348;2022-07-15T05:36:14;3.83;;;2.17;;
19525;SDS011;9907;42.676;26.348;2022-07-15T05:38:41;8.40;;;2.30;;
19525;SDS011;9907;42.676;26.348;2022-07-15T05:41:07;4.68;;;1.83;;
19525;SDS011;9907;42.676;26.348;2022-07-15T05:43:34;2.63;;;1.90;;
19525;SDS011;9907;42.676;26.348;2022-07-15T05:46:00;3.92;;;1.90;;
19525;SDS011;9907;42.676;26.348;2022-07-15T05:48:25;1.52;;;1.40;;
19525;SDS011;9907;42.676;26.348;2022-07-15T05:50:51;1.92;;;1.05;;
19525;SDS011;9907;42.676;26.348;2022-07-15T05:53:16;4.30;;;1.55;;
19525;SDS011;9907;42.676;26.348;2022-07-15T05:55:42;6.50;;;1.70;;
19525;SDS011;9907;42.676;26.348;2022-07-15T05:58:08;1.77;;;1.10;;
19525;SDS011;9907;42.676;26.348;2022-07-15T06:00:34;3.30;;;1.60;;
19525;SDS011;9907;42.676;26.348;2022-07-15T06:03:00;1.73;;;1.55;;
19525;SDS011;9907;42.676;26.348;2022-07-15T06:05:27;2.85;;;1.27;;
19525;SDS011;9907;42.676;26.348;2022-07-15T06:07:53;1.40;;;1.23;;
19525;SDS011;9907;42.676;26.348;2022-07-15T06:10:19;1.17;;;1.05;;
19525;SDS011;9907;42.676;26.348;2022-07-15T06:12:44;2.55;;;1.27;;
19525;SDS011;9907;42.676;26.348;2022-07-15T06:15:10;1.38;;;1.27;;
19525;SDS011;9907;42.676;26.348;2022-07-15T06:17:36;2.70;;;1.27;;
19525;SDS011;9907;42.676;26.348;2022-07-15T06:20:02;4.13;;;1.98;;
19525;SDS011;9907;42.676;26.348;2022-07-15T06:22:28;5.35;;;1.90;;
19525;SDS011;9907;42.676;26.348;2022-07-15T06:24:53;1.92;;;1.38;;
19525;SDS011;9907;42.676;26.348;2022-07-15T06:27:19;4.05;;;2.28;;
19525;SDS011;9907;42.676;26.348;2022-07-15T06:29:47;2.95;;;1.40;;
19525;SDS011;9907;42.676;26.348;2022-07-15T06:32:13;4.18;;;1.80;;
19525;SDS011;9907;42.676;26.348;2022-07-15T06:34:39;9.73;;;1.98;;
19525;SDS011;9907;42.676;26.348;2022-07-15T06:37:04;8.30;;;1.95;;
19525;SDS011;9907;42.676;26.348;2022-07-15T06:39:30;4.57;;;1.73;;
19525;SDS011;9907;42.676;26.348;2022-07-15T06:41:56;2.60;;;1.73;;
19525;SDS011;9907;42.676;26.348;2022-07-15T06:44:21;1.20;;;1.15;;
19525;SDS011;9907;42.676;26.348;2022-07-15T06:46:47;1.33;;;1.23;;
19525;SDS011;9907;42.676;26.348;2022-07-15T06:49:13;2.78;;;1.63;;
19525;SDS011;9907;42.676;26.348;2022-07-15T06:51:38;1.88;;;1.20;;
19525;SDS011;9907;42.676;26.348;2022-07-15T06:54:04;2.33;;;1.17;;
19525;SDS011;9907;42.676;26.348;2022-07-15T06:56:32;3.00;;;1.30;;
19525;SDS011;9907;42.676;26.348;2022-07-15T06:58:58;2.95;;;1.60;;
19525;SDS011;9907;42.676;26.348;2022-07-15T07:01:23;1.83;;;1.10;;
19525;SDS011;9907;42.676;26.348;2022-07-15T07:03:49;1.13;;;1.02;;
19525;SDS011;9907;42.676;26.348;2022-07-15T07:06:14;1.98;;;1.75;;
19525;SDS011;9907;42.676;26.348;2022-07-15T07:08:40;3.17;;;1.48;;
19525;SDS011;9907;42.676;26.348;2022-07-15T07:11:05;1.95;;;1.30;;
19525;SDS011;9907;42.676;26.348;2022-07-15T07:13:31;3.03;;;1.65;;
19525;SDS011;9907;42.676;26.348;2022-07-15T07:15:56;2.78;;;1.88;;
19525;SDS011;9907;42.676;26.348;2022-07-15T07:18:22;2.28;;;1.90;;
19525;SDS011;9907;42.676;26.348;2022-07-15T07:20:47;1.98;;;1.77;;
19525;SDS011;9907;42.676;26.348;2022-07-15T07:23:13;4.80;;;3.05;;
19525;SDS011;9907;42.676;26.348;2022-07-15T07:25:38;6.50;;;3.00;;
19525;SDS011;9907;42.676;26.348;2022-07-15T07:28:04;5.13;;;2.70;;
19525;SDS011;9907;42.676;26.348;2022-07-15T07:30:30;7.60;;;2.33;;
19525;SDS011;9907;42.676;26.348;2022-07-15T07:32:57;3.92;;;2.20;;
19525;SDS011;9907;42.676;26.348;2022-07-15T07:35:22;7.30;;;2.30;;
19525;SDS011;9907;42.676;26.348;2022-07-15T07:37:49;5.32;;;2.25;;
19525;SDS011;9907;42.676;26.348;2022-07-15T07:40:14;6.63;;;3.13;;
19525;SDS011;9907;42.676;26.348;2022-07-15T07:42:42;8.40;;;4.25;;
19525;SDS011;9907;42.676;26.348;2022-07-15T07:45:08;6.40;;;2.97;;
19525;SDS011;9907;42.676;26.348;2022-07-15T07:47:35;6.15;;;2.30;;
19525;SDS011;9907;42.676;26.348;2022-07-15T07:50:03;4.57;;;2.17;;
19525;SDS011;9907;42.676;26.348;2022-07-15T07:52:29;6.22;;;2.53;;
19525;SDS011;9907;42.676;26.348;2022-07-15T07:54:55;6.35;;;2.20;;
19525;SDS011;9907;42.676;26.348;2022-07-15T07:57:20;5.72;;;2.17;;
19525;SDS011;9907;42.676;26.348;2022-07-15T07:59:46;5.90;;;2.15;;
19525;SDS011;9907;42.676;26.348;2022-07-15T08:02:11;7.55;;;4.70;;
19525;SDS011;9907;42.676;26.348;2022-07-15T08:04:37;3.92;;;2.05;;
19525;SDS011;9907;42.676;26.348;2022-07-15T08:07:03;3.80;;;2.75;;
19525;SDS011;9907;42.676;26.348;2022-07-15T08:09:31;3.97;;;1.60;;
19525;SDS011;9907;42.676;26.348;2022-07-15T08:11:56;3.55;;;1.70;;
19525;SDS011;9907;42.676;26.348;2022-07-15T08:14:23;2.60;;;1.85;;
19525;SDS011;9907;42.676;26.348;2022-07-15T08:16:50;5.13;;;2.05;;
19525;SDS011;9907;42.676;26.348;2022-07-15T08:19:16;3.65;;;2.20;;
19525;SDS011;9907;42.676;26.348;2022-07-15T08:21:44;4.07;;;2.25;;
19525;SDS011;9907;42.676;26.348;2022-07-15T08:24:11;5.13;;;2.55;;
19525;SDS011;9907;42.676;26.348;2022-07-15T08:26:37;6.95;;;2.70;;
19525;SDS011;9907;42.676;26.348;2022-07-15T08:29:03;9.38;;;2.72;;
19525;SDS011;9907;42.676;26.348;2022-07-15T08:31:29;3.42;;;2.28;;
19525;SDS011;9907;42.676;26.348;2022-07-15T08:33:59;3.45;;;1.80;;
19525;SDS011;9907;42.676;26.348;2022-07-15T08:36:24;5.03;;;1.83;;
19525;SDS011;9907;42.676;26.348;2022-07-15T08:38:50;4.88;;;2.65;;
19525;SDS011;9907;42.676;26.348;2022-07-15T08:41:15;4.68;;;2.13;;
19525;SDS011;9907;42.676;26.348;2022-07-15T08:43:41;3.92;;;1.80;;
19525;SDS011;9907;42.676;26.348;2022-07-15T08:46:07;2.95;;;1.70;;
19525;SDS011;9907;42.676;26.348;2022-07-15T08:48:35;4.88;;;1.70;;
19525;SDS011;9907;42.676;26.348;2022-07-15T08:51:04;4.05;;;2.03;;
19525;SDS011;9907;42.676;26.348;2022-07-15T08:53:31;3.53;;;1.92;;
19525;SDS011;9907;42.676;26.348;2022-07-15T08:55:57;5.03;;;1.65;;
19525;SDS011;9907;42.676;26.348;2022-07-15T08:58:23;3.70;;;1.75;;
19525;SDS011;9907;42.676;26.348;2022-07-15T09:00:49;4.00;;;1.85;;
19525;SDS011;9907;42.676;26.348;2022-07-15T09:03:15;3.33;;;1.52;;
19525;SDS011;9907;42.676;26.348;2022-07-15T09:05:41;2.97;;;1.52;;
19525;SDS011;9907;42.676;26.348;2022-07-15T09:08:14;3.25;;;1.60;;
19525;SDS011;9907;42.676;26.348;2022-07-15T09:13:10;5.60;;;1.83;;
19525;SDS011;9907;42.676;26.348;2022-07-15T09:15:50;3.42;;;2.00;;
19525;SDS011;9907;42.676;26.348;2022-07-15T09:18:16;2.65;;;1.60;;
19525;SDS011;9907;42.676;26.348;2022-07-15T09:20:47;3.72;;;1.85;;
19525;SDS011;9907;42.676;26.348;2022-07-15T09:23:16;4.03;;;1.70;;
19525;SDS011;9907;42.676;26.348;2022-07-15T09:25:46;3.00;;;1.52;;
19525;SDS011;9907;42.676;26.348;2022-07-15T09:28:13;1.98;;;1.80;;
19525;SDS011;9907;42.676;26.348;2022-07-15T09:30:39;2.72;;;1.55;;
19525;SDS011;9907;42.676;26.348;2022-07-15T09:33:27;1.63;;;1.20;;
19525;SDS011;9907;42.676;26.348;2022-07-15T09:38:49;2.80;;;1.60;;
19525;SDS011;9907;42.676;26.348;2022-07-15T09:46:14;2.25;;;1.60;;
19525;SDS011;9907;42.676;26.348;2022-07-15T09:48:42;4.45;;;1.42;;
19525;SDS011;9907;42.676;26.348;2022-07-15T09:51:09;3.75;;;1.63;;
19525;SDS011;9907;42.676;26.348;2022-07-15T09:53:35;1.73;;;1.40;;
19525;SDS011;9907;42.676;26.348;2022-07-15T09:56:02;2.78;;;1.50;;
19525;SDS011;9907;42.676;26.348;2022-07-15T09:58:29;2.85;;;1.30;;
19525;SDS011;9907;42.676;26.348;2022-07-15T10:00:54;1.50;;;1.30;;
19525;SDS011;9907;42.676;26.348;2022-07-15T10:03:20;5.85;;;1.25;;
19525;SDS011;9907;42.676;26.348;2022-07-15T10:05:52;4.38;;;1.40;;
19525;SDS011;9907;42.676;26.348;2022-07-15T10:08:19;3.58;;;1.60;;
19525;SDS011;9907;42.676;26.348;2022-07-15T10:10:45;1.33;;;1.05;;
19525;SDS011;9907;42.676;26.348;2022-07-15T10:15:54;4.20;;;1.50;;
19525;SDS011;9907;42.676;26.348;2022-07-15T10:18:35;2.50;;;1.05;;
19525;SDS011;9907;42.676;26.348;2022-07-15T10:21:18;1.40;;;1.30;;
19525;SDS011;9907;42.676;26.348;2022-07-15T10:24:10;1.38;;;1.27;;
19525;SDS011;9907;42.676;26.348;2022-07-15T10:26:55;2.40;;;1.70;;
19525;SDS011;9907;42.676;26.348;2022-07-15T10:29:46;4.53;;;1.70;;
19525;SDS011;9907;42.676;26.348;2022-07-15T10:32:13;1.60;;;1.38;;
19525;SDS011;9907;42.676;26.348;2022-07-15T10:34:38;1.70;;;1.30;;
19525;SDS011;9907;42.676;26.348;2022-07-15T10:37:09;4.50;;;1.30;;
19525;SDS011;9907;42.676;26.348;2022-07-15T10:42:16;3.80;;;1.80;;
19525;SDS011;9907;42.676;26.348;2022-07-15T10:49:41;4.90;;;2.20;;
19525;SDS011;9907;42.676;26.348;2022-07-15T10:54:44;2.50;;;1.50;;
19525;SDS011;9907;42.676;26.348;2022-07-15T10:57:16;3.97;;;1.83;;
19525;SDS011;9907;42.676;26.348;2022-07-15T10:59:52;2.55;;;1.10;;
19525;SDS011;9907;42.676;26.348;2022-07-15T11:02:21;3.03;;;1.27;;
19525;SDS011;9907;42.676;26.348;2022-07-15T11:04:49;2.43;;;1.20;;
19525;SDS011;9907;42.676;26.348;2022-07-15T11:17:21;1.20;;;1.10;;
19525;SDS011;9907;42.676;26.348;2022-07-15T11:19:51;1.50;;;1.40;;
19525;SDS011;9907;42.676;26.348;2022-07-15T11:22:19;2.85;;;1.20;;
19525;SDS011;9907;42.676;26.348;2022-07-15T11:24:46;1.33;;;1.23;;
19525;SDS011;9907;42.676;26.348;2022-07-15T11:27:12;2.42;;;1.40;;
19525;SDS011;9907;42.676;26.348;2022-07-15T11:29:43;3.33;;;1.73;;
19525;SDS011;9907;42.676;26.348;2022-07-15T11:32:15;1.25;;;1.02;;
19525;SDS011;9907;42.676;26.348;2022-07-15T11:34:43;1.38;;;1.27;;
19525;SDS011;9907;42.676;26.348;2022-07-15T11:37:11;2.05;;;1.20;;
19525;SDS011;9907;42.676;26.348;2022-07-15T11:39:38;1.35;;;1.25;;
19525;SDS011;9907;42.676;26.348;2022-07-15T11:42:04;4.60;;;2.53;;
19525;SDS011;9907;42.676;26.348;2022-07-15T11:44:48;3.00;;;2.00;;
19525;SDS011;9907;42.676;26.348;2022-07-15T11:47:16;3.60;;;2.33;;
19525;SDS011;9907;42.676;26.348;2022-07-15T11:49:42;3.17;;;2.30;;
19525;SDS011;9907;42.676;26.348;2022-07-15T11:52:10;3.37;;;1.80;;
19525;SDS011;9907;42.676;26.348;2022-07-15T11:54:38;4.20;;;1.47;;
19525;SDS011;9907;42.676;26.348;2022-07-15T11:57:06;2.67;;;1.67;;
19525;SDS011;9907;42.676;26.348;2022-07-15T11:59:33;3.60;;;1.40;;
19525;SDS011;9907;42.676;26.348;2022-07-15T12:02:10;1.67;;;1.40;;
19525;SDS011;9907;42.676;26.348;2022-07-15T12:04:38;2.17;;;1.40;;
19525;SDS011;9907;42.676;26.348;2022-07-15T12:07:04;2.88;;;1.80;;
19525;SDS011;9907;42.676;26.348;2022-07-15T12:12:09;4.10;;;1.40;;
19525;SDS011;9907;42.676;26.348;2022-07-15T12:14:35;2.03;;;1.30;;
19525;SDS011;9907;42.676;26.348;2022-07-15T12:17:02;1.63;;;1.10;;
19525;SDS011;9907;42.676;26.348;2022-07-15T12:19:28;2.13;;;1.43;;
19525;SDS011;9907;42.676;26.348;2022-07-15T12:22:05;2.07;;;1.80;;
19525;SDS011;9907;42.676;26.348;2022-07-15T12:24:38;1.73;;;1.10;;
19525;SDS011;9907;42.676;26.348;2022-07-15T12:27:06;1.43;;;1.33;;
19525;SDS011;9907;42.676;26.348;2022-07-15T12:29:32;3.10;;;1.70;;
19525;SDS011;9907;42.676;26.348;2022-07-15T12:32:01;1.27;;;1.17;;
19525;SDS011;9907;42.676;26.348;2022-07-15T12:42:24;2.53;;;1.57;;
19525;SDS011;9907;42.676;26.348;2022-07-15T12:45:07;6.53;;;1.57;;
19525;SDS011;9907;42.676;26.348;2022-07-15T12:47:33;1.47;;;1.37;;
19525;SDS011;9907;42.676;26.348;2022-07-15T12:49:59;3.07;;;2.17;;
19525;SDS011;9907;42.676;26.348;2022-07-15T12:52:33;2.70;;;1.80;;
19525;SDS011;9907;42.676;26.348;2022-07-15T12:55:21;2.93;;;2.27;;
19525;SDS011;9907;42.676;26.348;2022-07-15T12:57:50;2.60;;;1.87;;
19525;SDS011;9907;42.676;26.348;2022-07-15T13:00:21;3.57;;;1.50;;
19525;SDS011;9907;42.676;26.348;2022-07-15T13:02:55;5.13;;;1.97;;
19525;SDS011;9907;42.676;26.348;2022-07-15T13:05:22;1.60;;;1.50;;
19525;SDS011;9907;42.676;26.348;2022-07-15T13:07:48;1.97;;;1.77;;
19525;SDS011;9907;42.676;26.348;2022-07-15T13:10:13;2.73;;;1.30;;
19525;SDS011;9907;42.676;26.348;2022-07-15T13:12:39;3.40;;;1.70;;
19525;SDS011;9907;42.676;26.348;2022-07-15T13:15:06;1.60;;;1.50;;
19525;SDS011;9907;42.676;26.348;2022-07-15T13:17:33;1.40;;;1.10;;
19525;SDS011;9907;42.676;26.348;2022-07-15T13:20:00;1.67;;;1.30;;
19525;SDS011;9907;42.676;26.348;2022-07-15T13:22:25;1.87;;;1.33;;
19525;SDS011;9907;42.676;26.348;2022-07-15T13:24:54;2.00;;;1.10;;
19525;SDS011;9907;42.676;26.348;2022-07-15T13:27:19;1.30;;;1.20;;
19525;SDS011;9907;42.676;26.348;2022-07-15T13:29:45;1.60;;;1.50;;
19525;SDS011;9907;42.676;26.348;2022-07-15T13:32:10;1.40;;;1.23;;
19525;SDS011;9907;42.676;26.348;2022-07-15T13:34:36;2.27;;;2.07;;
19525;SDS011;9907;42.676;26.348;2022-07-15T13:37:01;2.23;;;1.40;;
19525;SDS011;9907;42.676;26.348;2022-07-15T13:39:27;2.97;;;1.50;;
19525;SDS011;9907;42.676;26.348;2022-07-15T13:41:52;1.30;;;1.23;;
19525;SDS011;9907;42.676;26.348;2022-07-15T13:44:18;3.37;;;1.73;;
19525;SDS011;9907;42.676;26.348;2022-07-15T13:46:43;1.40;;;1.10;;
19525;SDS011;9907;42.676;26.348;2022-07-15T13:49:09;6.27;;;2.00;;
19525;SDS011;9907;42.676;26.348;2022-07-15T13:51:34;2.80;;;1.60;;
19525;SDS011;9907;42.676;26.348;2022-07-15T13:54:01;2.07;;;1.10;;
19525;SDS011;9907;42.676;26.348;2022-07-15T13:56:27;1.93;;;1.17;;
19525;SDS011;9907;42.676;26.348;2022-07-15T13:58:53;1.27;;;1.17;;
19525;SDS011;9907;42.676;26.348;2022-07-15T14:01:23;1.97;;;1.13;;
19525;SDS011;9907;42.676;26.348;2022-07-15T14:03:49;1.13;;;1.10;;
19525;SDS011;9907;42.676;26.348;2022-07-15T14:06:14;1.40;;;1.30;;
19525;SDS011;9907;42.676;26.348;2022-07-15T14:08:39;1.60;;;1.50;;
19525;SDS011;9907;42.676;26.348;2022-07-15T14:11:05;1.93;;;1.20;;
19525;SDS011;9907;42.676;26.348;2022-07-15T14:13:31;4.53;;;1.20;;
19525;SDS011;9907;42.676;26.348;2022-07-15T14:15:56;2.07;;;1.20;;
19525;SDS011;9907;42.676;26.348;2022-07-15T14:18:22;1.67;;;1.30;;
19525;SDS011;9907;42.676;26.348;2022-07-15T14:21:07;4.00;;;1.50;;
19525;SDS011;9907;42.676;26.348;2022-07-15T14:23:36;2.80;;;1.80;;
19525;SDS011;9907;42.676;26.348;2022-07-15T14:26:02;2.00;;;1.67;;
19525;SDS011;9907;42.676;26.348;2022-07-15T14:28:28;2.03;;;1.80;;
19525;SDS011;9907;42.676;26.348;2022-07-15T14:30:54;4.00;;;2.10;;
19525;SDS011;9907;42.676;26.348;2022-07-15T14:33:19;5.20;;;1.83;;
19525;SDS011;9907;42.676;26.348;2022-07-15T14:35:45;1.80;;;1.50;;
19525;SDS011;9907;42.676;26.348;2022-07-15T14:38:11;2.70;;;1.23;;
19525;SDS011;9907;42.676;26.348;2022-07-15T14:40:36;3.20;;;1.80;;
19525;SDS011;9907;42.676;26.348;2022-07-15T14:43:02;2.63;;;1.13;;
19525;SDS011;9907;42.676;26.348;2022-07-15T14:45:28;2.08;;;1.17;;
19525;SDS011;9907;42.676;26.348;2022-07-15T14:47:53;4.07;;;3.22;;
19525;SDS011;9907;42.676;26.348;2022-07-15T14:50:19;3.00;;;1.93;;
19525;SDS011;9907;42.676;26.348;2022-07-15T14:52:44;1.30;;;1.20;;
19525;SDS011;9907;42.676;26.348;2022-07-15T14:55:10;1.40;;;1.30;;
19525;SDS011;9907;42.676;26.348;2022-07-15T14:57:35;1.87;;;1.30;;
19525;SDS011;9907;42.676;26.348;2022-07-15T15:00:01;2.83;;;1.77;;
19525;SDS011;9907;42.676;26.348;2022-07-15T15:02:31;2.47;;;1.60;;
19525;SDS011;9907;42.676;26.348;2022-07-15T15:04:56;3.37;;;1.70;;
19525;SDS011;9907;42.676;26.348;2022-07-15T15:07:28;1.37;;;1.20;;
19525;SDS011;9907;42.676;26.348;2022-07-15T15:09:55;4.13;;;1.83;;
19525;SDS011;9907;42.676;26.348;2022-07-15T15:12:21;1.70;;;1.50;;
19525;SDS011;9907;42.676;26.348;2022-07-15T15:14:46;2.53;;;1.23;;
19525;SDS011;9907;42.676;26.348;2022-07-15T15:17:12;1.50;;;1.40;;
19525;SDS011;9907;42.676;26.348;2022-07-15T15:19:38;2.50;;;1.93;;
19525;SDS011;9907;42.676;26.348;2022-07-15T15:22:04;4.90;;;2.60;;
19525;SDS011;9907;42.676;26.348;2022-07-15T15:24:30;5.37;;;3.07;;
19525;SDS011;9907;42.676;26.348;2022-07-15T15:26:57;2.90;;;2.30;;
19525;SDS011;9907;42.676;26.348;2022-07-15T15:29:23;2.93;;;2.27;;
19525;SDS011;9907;42.676;26.348;2022-07-15T15:31:51;2.10;;;1.70;;